Time;durP1;ratioP1;P1;durP2;ratioP2;P2;SDS_P1;SDS_P2;PMS_P1;PMS_P2;Temp;Humidity;BMP_temperature;BMP_pressure;BME280_temperature;BME280_humidity;BME280_pressure;Samples;Min_cycle;Max_cycle;Signal;HPM_P1;HPM_P2
2023/07/31 00:02:01;;;;;;;2.43;1.17;;;;;;;20.26;52.77;98762.59;5175221;27;41944;-76
2023/07/31 00:04:31;;;;;;;1.50;0.80;;;;;;;20.27;52.45;98759.72;5157782;27;41380;-76
2023/07/31 00:06:58;;;;;;;1.57;0.70;;;;;;;20.22;52.74;98751.28;5139425;27;39753;-76
2023/07/31 00:09:26;;;;;;;2.57;0.80;;;;;;;20.28;52.88;98749.78;5139528;27;42235;-76
2023/07/31 00:11:53;;;;;;;1.27;1.00;;;;;;;20.28;52.82;98760.53;5138967;27;42670;-76
2023/07/31 00:14:21;;;;;;;1.70;1.00;;;;;;;20.26;52.57;98760.72;5175340;27;43346;-76
2023/07/31 00:16:49;;;;;;;1.40;0.73;;;;;;;20.25;52.93;98761.72;5156250;27;41320;-76
2023/07/31 00:19:17;;;;;;;2.37;0.90;;;;;;;20.26;53.07;98744.59;5156735;27;41748;-76
2023/07/31 00:21:46;;;;;;;1.40;0.87;;;;;;;20.21;53.04;98746.91;5174284;27;43043;-76
2023/07/31 00:24:14;;;;;;;1.17;0.60;;;;;;;20.25;53.12;98756.34;5175238;27;42345;-76
2023/07/31 00:26:42;;;;;;;1.50;1.10;;;;;;;20.26;53.19;98758.03;5138925;27;39715;-77
2023/07/31 00:29:09;;;;;;;1.83;1.10;;;;;;;20.25;53.64;98755.50;5156455;27;41842;-76
2023/07/31 00:31:38;;;;;;;0.77;0.77;;;;;;;20.18;53.12;98746.38;5138657;27;41863;-76
2023/07/31 00:34:06;;;;;;;1.60;1.47;;;;;;;20.18;53.28;98744.53;5138915;27;42072;-76
2023/07/31 00:56:57;;;;;;;1.00;0.90;;;;;;;19.85;54.86;98742.66;5172980;27;42370;-76
2023/07/31 00:59:26;;;;;;;2.83;1.13;;;;;;;19.79;55.35;98732.50;5137486;27;41525;-76
2023/07/31 01:01:54;;;;;;;3.77;1.00;;;;;;;19.83;54.99;98728.50;5139491;27;42324;-77
2023/07/31 01:04:23;;;;;;;2.23;1.30;;;;;;;19.86;55.12;98730.91;5156862;27;40031;-76
2023/07/31 01:07:00;;;;;;;2.90;1.00;;;;;;;19.84;55.48;98724.81;5156886;27;42685;-76
2023/07/31 01:09:38;;;;;;;2.93;0.90;;;;;;;19.83;55.09;98723.13;5156362;27;42557;-76
2023/07/31 01:12:08;;;;;;;2.23;1.00;;;;;;;19.87;55.34;98719.16;5152548;27;42430;-76
2023/07/31 01:14:38;;;;;;;1.53;0.80;;;;;;;19.88;55.49;98727.06;5138895;27;40319;-76
2023/07/31 01:17:06;;;;;;;1.63;1.10;;;;;;;19.82;55.52;98722.28;5138310;27;41835;-76
2023/07/31 01:19:33;;;;;;;2.23;1.20;;;;;;;19.78;55.71;98720.09;5156007;27;43214;-76
2023/07/31 01:22:23;;;;;;;3.57;0.87;;;;;;;19.73;55.67;98705.28;5137949;27;42167;-76
2023/07/31 01:25:01;;;;;;;2.67;0.80;;;;;;;19.79;55.48;98716.38;5152555;27;41043;-76
2023/07/31 01:27:35;;;;;;;2.47;0.80;;;;;;;19.78;55.38;98717.41;5138506;27;40548;-76
2023/07/31 01:30:10;;;;;;;1.23;0.97;;;;;;;19.76;55.84;98705.97;5152418;27;43620;-76
2023/07/31 01:32:41;;;;;;;1.07;0.83;;;;;;;19.69;56.10;98701.22;5171966;27;42436;-76
2023/07/31 01:35:10;;;;;;;1.20;0.80;;;;;;;19.69;56.09;98695.84;5171243;27;40944;-76
2023/07/31 01:37:37;;;;;;;3.23;1.40;;;;;;;19.67;56.33;98691.63;5138456;27;40766;-76
2023/07/31 01:40:07;;;;;;;2.87;0.80;;;;;;;19.70;55.93;98692.16;5137866;27;41834;-76
2023/07/31 01:42:37;;;;;;;2.27;1.07;;;;;;;19.69;55.94;98690.47;5155071;27;41131;-76
2023/07/31 01:45:06;;;;;;;1.10;0.90;;;;;;;19.69;56.17;98690.47;5138883;27;40971;-77
2023/07/31 01:47:33;;;;;;;1.87;1.10;;;;;;;19.70;56.45;98689.47;5174378;27;40908;-76
2023/07/31 01:50:01;;;;;;;1.60;0.83;;;;;;;19.68;56.30;98683.41;5156077;27;41667;-76
2023/07/31 01:52:30;;;;;;;1.20;0.80;;;;;;;19.67;56.65;98687.09;5155561;27;41204;-76
2023/07/31 01:54:57;;;;;;;1.80;1.00;;;;;;;19.68;56.47;98688.78;5156380;27;40937;-76
2023/07/31 01:57:25;;;;;;;1.87;1.40;;;;;;;19.62;56.89;98667.94;5155690;27;42487;-76
2023/07/31 01:59:55;;;;;;;1.33;1.03;;;;;;;19.64;56.53;98683.91;5152951;27;43688;-77
2023/07/31 02:02:23;;;;;;;1.10;0.90;;;;;;;19.62;56.34;98683.19;5138351;27;41343;-76
2023/07/31 02:04:51;;;;;;;1.53;1.10;;;;;;;19.59;56.80;98678.97;5138646;27;39506;-76
2023/07/31 02:07:19;;;;;;;2.77;1.17;;;;;;;19.58;56.84;98677.28;5138226;27;40898;-76
2023/07/31 02:09:47;;;;;;;1.40;0.93;;;;;;;19.59;56.43;98668.22;5137496;27;42985;-76
2023/07/31 02:12:15;;;;;;;3.30;1.00;;;;;;;19.59;56.50;98668.22;5171583;27;43021;-77
2023/07/31 02:14:43;;;;;;;1.47;1.20;;;;;;;19.58;56.83;98671.06;5155135;27;39859;-76
2023/07/31 02:17:13;;;;;;;1.40;1.03;;;;;;;19.60;56.63;98669.94;5137312;27;40742;-76
2023/07/31 02:19:41;;;;;;;2.13;1.50;;;;;;;19.58;57.09;98666.53;5137276;27;41718;-76
2023/07/31 02:22:09;;;;;;;4.57;1.33;;;;;;;19.55;56.94;98656.09;5137066;27;41388;-76
2023/07/31 02:24:37;;;;;;;2.47;0.90;;;;;;;19.51;57.03;98651.22;5154856;27;41492;-76
2023/07/31 02:27:05;;;;;;;2.50;0.80;;;;;;;19.46;57.06;98650.81;5119854;27;40606;-76
2023/07/31 02:29:33;;;;;;;0.87;0.83;;;;;;;19.21;57.43;98622.94;5120293;27;43030;-76
2023/07/31 02:32:01;;;;;;;1.60;1.20;;;;;;;19.37;57.56;98655.28;5171954;27;42751;-76
2023/07/31 02:34:31;;;;;;;4.23;1.00;;;;;;;19.33;57.75;98652.06;5154721;27;40668;-76
2023/07/31 02:36:58;;;;;;;2.63;0.87;;;;;;;19.31;57.35;98648.69;5154089;27;41030;-76
2023/07/31 02:39:27;;;;;;;1.47;0.80;;;;;;;19.26;57.45;98634.91;5103376;27;41497;-76
2023/07/31 02:41:55;;;;;;;3.30;1.10;;;;;;;19.20;57.70;98645.41;5155169;27;41377;-76
2023/07/31 02:44:24;;;;;;;1.50;0.90;;;;;;;19.10;57.72;98636.59;5155494;27;40852;-77
2023/07/31 02:46:52;;;;;;;1.17;0.93;;;;;;;19.10;57.95;98639.28;5172796;27;42523;-76
2023/07/31 02:49:20;;;;;;;2.20;0.97;;;;;;;19.05;58.22;98630.84;5155402;27;41900;-76
2023/07/31 02:51:50;;;;;;;3.63;1.03;;;;;;;19.02;58.26;98640.91;5173980;27;42418;-75
2023/07/31 02:54:17;;;;;;;1.90;1.07;;;;;;;18.98;58.36;98647.56;5137884;27;40294;-76
2023/07/31 02:56:45;;;;;;;1.80;0.90;;;;;;;19.01;58.14;98644.59;5155318;27;41745;-76
2023/07/31 02:59:13;;;;;;;2.23;0.90;;;;;;;18.89;57.95;98629.72;5173906;27;42923;-76
2023/07/31 03:01:40;;;;;;;2.00;0.90;;;;;;;18.99;58.21;98638.53;5155003;27;42342;-76
2023/07/31 03:04:09;;;;;;;3.37;1.20;;;;;;;18.88;58.59;98620.00;5156341;27;20229;-76
2023/07/31 03:06:43;;;;;;;1.60;1.00;;;;;;;18.91;58.14;98638.47;5108301;28;40902;-76
2023/07/31 03:09:13;;;;;;;2.17;1.07;;;;;;;18.81;58.40;98628.78;5091412;28;43840;-76
2023/07/31 03:11:40;;;;;;;1.17;0.90;;;;;;;18.98;58.72;98652.94;5092777;28;42323;-76
2023/07/31 03:14:08;;;;;;;2.70;1.00;;;;;;;18.97;58.64;98650.41;5094329;28;40145;-76
2023/07/31 03:16:36;;;;;;;1.30;1.00;;;;;;;19.02;58.52;98654.34;5111395;28;41669;-76
2023/07/31 03:19:04;;;;;;;1.63;0.90;;;;;;;19.02;58.27;98650.81;5094293;28;43496;-76
2023/07/31 03:21:32;;;;;;;1.60;0.93;;;;;;;19.01;58.60;98641.06;5089027;28;41481;-77
2023/07/31 03:23:59;;;;;;;2.63;1.20;;;;;;;19.00;58.66;98632.16;5077516;28;40942;-76
2023/07/31 03:26:29;;;;;;;1.90;1.03;;;;;;;19.06;58.56;98632.53;5090664;28;43663;-76
2023/07/31 03:28:57;;;;;;;2.07;1.00;;;;;;;19.07;58.76;98634.22;5090834;28;44377;-76
2023/07/31 03:31:25;;;;;;;2.80;1.13;;;;;;;19.09;58.51;98627.69;5111461;28;41654;-77
2023/07/31 03:33:53;;;;;;;2.60;1.00;;;;;;;19.11;58.49;98633.75;5068548;28;41314;-76
2023/07/31 03:36:21;;;;;;;1.30;1.00;;;;;;;19.11;58.80;98631.09;5094288;28;41587;-76
2023/07/31 03:38:50;;;;;;;2.07;1.40;;;;;;;19.13;58.32;98638.97;5133308;27;41765;-76
2023/07/31 03:41:19;;;;;;;5.30;1.20;;;;;;;19.10;58.99;98631.22;5140307;27;41542;-76
2023/07/31 03:43:52;;;;;;;2.43;1.07;;;;;;;19.15;58.90;98631.63;5158524;27;41844;-76
2023/07/31 03:46:20;;;;;;;1.23;1.00;;;;;;;19.14;59.05;98629.94;5140897;27;41942;-76
2023/07/31 03:48:50;;;;;;;3.67;1.10;;;;;;;19.12;59.13;98631.94;5140830;27;43126;-76
2023/07/31 03:51:18;;;;;;;1.70;0.90;;;;;;;19.14;59.11;98640.66;5175363;27;42695;-76
2023/07/31 03:53:46;;;;;;;3.53;1.30;;;;;;;19.04;59.10;98621.94;5140446;27;40132;-77
2023/07/31 03:56:14;;;;;;;1.97;1.00;;;;;;;19.08;59.17;98641.28;5140552;27;42045;-76
2023/07/31 03:58:41;;;;;;;1.70;1.17;;;;;;;19.03;58.92;98633.72;5157544;27;43586;-76
2023/07/31 04:01:11;;;;;;;2.10;1.40;;;;;;;18.97;59.45;98629.78;5175054;27;43414;-76
2023/07/31 04:03:39;;;;;;;1.87;1.00;;;;;;;18.96;59.67;98628.09;5157516;27;41474;-76
2023/07/31 04:06:07;;;;;;;1.67;0.80;;;;;;;18.97;59.08;98645.88;5157483;27;42856;-76
2023/07/31 04:08:34;;;;;;;3.10;1.10;;;;;;;18.92;59.46;98615.97;5139522;27;42999;-76
2023/07/31 04:11:02;;;;;;;3.27;1.67;;;;;;;18.93;59.24;98614.13;5172913;27;41086;-76
2023/07/31 04:13:31;;;;;;;1.20;1.00;;;;;;;19.08;59.35;98638.59;5156236;27;40771;-76
2023/07/31 04:15:59;;;;;;;2.43;1.30;;;;;;;19.08;59.71;98627.84;5175038;27;42558;-76
2023/07/31 04:18:30;;;;;;;4.80;1.20;;;;;;;19.10;59.56;98633.91;5138730;27;41604;-76
2023/07/31 04:21:01;;;;;;;3.07;1.00;;;;;;;18.97;59.22;98607.47;5139074;27;41152;-76
2023/07/31 04:23:28;;;;;;;2.27;1.20;;;;;;;19.18;58.77;98632.13;5154795;27;40708;-76
2023/07/31 04:25:56;;;;;;;1.40;0.87;;;;;;;19.17;58.68;98618.88;5174856;27;41667;-77
2023/07/31 04:28:25;;;;;;;1.97;1.20;;;;;;;19.30;58.86;98632.72;5155804;27;41664;-76
2023/07/31 04:30:53;;;;;;;2.00;1.03;;;;;;;19.33;58.57;98640.47;5138826;27;42019;-76
2023/07/31 04:33:21;;;;;;;1.30;1.10;;;;;;;19.38;58.58;98632.81;5156109;27;39903;-76
2023/07/31 04:35:54;;;;;;;3.30;1.10;;;;;;;19.43;58.44;98638.53;5155976;27;41933;-76
2023/07/31 04:38:23;;;;;;;2.77;1.30;;;;;;;19.45;58.54;98644.59;5155760;27;44629;-76
2023/07/31 04:40:50;;;;;;;3.77;1.10;;;;;;;19.45;58.05;98639.22;5139055;27;41118;-76
2023/07/31 04:43:18;;;;;;;1.40;1.00;;;;;;;19.48;58.62;98636.22;5139187;27;40736;-76
2023/07/31 04:45:46;;;;;;;1.60;1.30;;;;;;;19.50;58.43;98634.28;5139181;27;41511;-76
2023/07/31 04:48:14;;;;;;;2.50;1.30;;;;;;;19.56;58.38;98632.78;5156240;27;43173;-75
2023/07/31 04:50:42;;;;;;;3.90;1.33;;;;;;;19.60;57.83;98644.91;5156364;27;41235;-76
2023/07/31 04:53:12;;;;;;;3.13;1.10;;;;;;;19.65;57.76;98638.06;5139411;27;40837;-76
2023/07/31 04:55:40;;;;;;;1.43;1.00;;;;;;;19.72;57.64;98628.34;5138903;27;40467;-76
2023/07/31 04:58:08;;;;;;;3.00;1.20;;;;;;;19.71;58.05;98623.97;5138409;27;41453;-76
2023/07/31 05:00:36;;;;;;;1.97;1.10;;;;;;;19.85;57.23;98633.28;5156168;27;42349;-76
2023/07/31 05:03:04;;;;;;;1.83;1.30;;;;;;;19.91;56.77;98623.72;5156719;27;41220;-76
2023/07/31 05:05:32;;;;;;;4.57;1.30;;;;;;;19.98;57.16;98627.47;5175159;27;42252;-77
2023/07/31 05:08:00;;;;;;;3.73;1.60;;;;;;;20.01;56.99;98633.38;5173809;27;43671;-76
2023/07/31 05:10:29;;;;;;;2.60;1.40;;;;;;;20.06;56.76;98627.50;5154276;27;42746;-76
2023/07/31 05:12:57;;;;;;;5.07;1.30;;;;;;;20.09;57.14;98619.97;5154646;27;39660;-76
2023/07/31 05:15:25;;;;;;;2.97;1.13;;;;;;;20.12;57.01;98617.97;5137825;27;42289;-76
2023/07/31 05:17:53;;;;;;;2.33;1.17;;;;;;;20.18;56.59;98626.22;5137511;27;41840;-76
2023/07/31 05:20:21;;;;;;;2.03;1.20;;;;;;;20.29;57.08;98623.22;5137639;27;42840;-76
2023/07/31 05:22:49;;;;;;;2.30;1.10;;;;;;;20.31;56.51;98621.22;5137461;27;39809;-76
2023/07/31 05:25:17;;;;;;;2.53;1.40;;;;;;;20.46;55.84;98634.09;5154847;27;41104;-75
2023/07/31 05:27:46;;;;;;;2.87;1.43;;;;;;;20.46;56.25;98617.94;5154887;27;43055;-77
2023/07/31 05:30:14;;;;;;;2.97;1.37;;;;;;;20.54;55.42;98624.19;5172300;27;42562;-76
2023/07/31 05:32:42;;;;;;;4.80;1.73;;;;;;;20.58;55.69;98628.22;5154439;27;40781;-77
2023/07/31 05:35:10;;;;;;;1.67;1.10;;;;;;;20.56;55.72;98624.03;5137291;27;42201;-76
2023/07/31 05:37:37;;;;;;;2.10;1.57;;;;;;;20.53;55.25;98613.56;5154598;27;42120;-76
2023/07/31 05:40:07;;;;;;;1.90;1.27;;;;;;;20.71;55.28;98633.97;5154675;27;41380;-76
2023/07/31 05:42:36;;;;;;;5.07;1.50;;;;;;;20.77;55.36;98637.88;5155260;27;41080;-76
2023/07/31 05:45:07;;;;;;;4.47;1.40;;;;;;;20.90;55.21;98631.97;5121465;27;40968;-76
2023/07/31 05:47:35;;;;;;;1.73;1.27;;;;;;;20.92;54.74;98630.81;5170613;27;42870;-76
2023/07/31 05:50:03;;;;;;;4.10;1.50;;;;;;;20.98;54.56;98623.94;5138171;27;41431;-76
2023/07/31 05:52:31;;;;;;;1.60;1.40;;;;;;;21.16;54.02;98641.59;5137921;27;39984;-76
2023/07/31 05:54:59;;;;;;;1.37;1.17;;;;;;;21.27;54.18;98650.38;5138005;27;41914;-76
2023/07/31 05:57:27;;;;;;;3.63;1.20;;;;;;;21.27;53.50;98629.66;5137247;27;43018;-76
2023/07/31 05:59:54;;;;;;;2.97;1.10;;;;;;;21.46;53.50;98640.09;5155518;27;42777;-78
2023/07/31 06:02:24;;;;;;;2.50;1.33;;;;;;;21.45;53.04;98616.88;5155349;27;41551;-76
2023/07/31 06:04:51;;;;;;;3.83;1.57;;;;;;;21.63;52.55;98629.31;5138331;27;41078;-76
2023/07/31 06:07:19;;;;;;;3.80;1.30;;;;;;;21.77;52.79;98621.34;5154853;27;42003;-77
2023/07/31 06:09:47;;;;;;;2.60;1.40;;;;;;;21.99;52.34;98629.75;5153905;27;41715;-76
2023/07/31 06:12:17;;;;;;;3.53;1.23;;;;;;;22.15;52.08;98638.59;5172259;27;40997;-77
2023/07/31 06:14:45;;;;;;;2.27;1.30;;;;;;;22.27;51.29;98640.91;5154016;27;41866;-76
2023/07/31 06:17:13;;;;;;;2.70;1.17;;;;;;;22.33;51.25;98637.53;5171396;27;42297;-77
2023/07/31 06:19:42;;;;;;;5.73;1.40;;;;;;;22.38;50.57;98646.78;5136889;27;42316;-77
2023/07/31 06:22:10;;;;;;;2.70;1.30;;;;;;;22.44;50.92;98646.06;5154136;27;41094;-76
2023/07/31 06:24:38;;;;;;;1.57;1.00;;;;;;;22.49;50.53;98648.25;5136746;27;41006;-76
2023/07/31 06:27:07;;;;;;;2.60;1.20;;;;;;;22.49;50.02;98643.72;5153777;27;42781;-76
2023/07/31 06:29:35;;;;;;;1.30;1.13;;;;;;;22.53;50.56;98650.41;5136856;27;41741;-76
2023/07/31 06:32:03;;;;;;;3.80;1.60;;;;;;;22.58;50.35;98653.44;5153602;27;40209;-77
2023/07/31 06:34:31;;;;;;;1.63;1.03;;;;;;;22.56;50.23;98650.06;5136406;27;40963;-76
2023/07/31 06:37:01;;;;;;;1.83;1.30;;;;;;;22.44;50.28;98651.47;5136373;27;43015;-77
2023/07/31 06:39:28;;;;;;;2.87;1.27;;;;;;;22.50;50.14;98664.25;5136695;27;41147;-77
2023/07/31 06:41:56;;;;;;;2.53;1.20;;;;;;;22.54;50.23;98657.50;5154977;27;41048;-76
2023/07/31 06:44:24;;;;;;;3.63;1.23;;;;;;;22.65;50.38;98663.50;5154717;27;40866;-76
2023/07/31 06:46:52;;;;;;;2.73;1.37;;;;;;;22.79;50.23;98670.88;5140668;27;41887;-76
2023/07/31 06:49:20;;;;;;;2.37;1.47;;;;;;;22.85;50.36;98668.34;5141343;27;42714;-76
2023/07/31 06:51:48;;;;;;;2.60;1.27;;;;;;;22.95;49.92;98668.09;5158500;27;41314;-77
2023/07/31 06:54:17;;;;;;;2.37;1.00;;;;;;;22.97;49.75;98652.56;5159140;27;41797;-76
2023/07/31 06:56:44;;;;;;;4.17;1.27;;;;;;;23.12;50.00;98666.94;5158446;27;42146;-77
2023/07/31 06:59:12;;;;;;;3.97;1.40;;;;;;;23.08;48.94;98675.59;5140796;27;41454;-77
2023/07/31 07:01:40;;;;;;;1.67;1.27;;;;;;;23.09;49.48;98670.03;5158496;27;40967;-76
2023/07/31 07:04:12;;;;;;;2.07;1.40;;;;;;;23.18;49.54;98674.34;5177328;27;41791;-77
2023/07/31 07:09:55;;;;;;;4.27;1.27;;;;;;;23.27;49.11;98670.56;5107337;27;42524;-77
2023/07/31 07:12:22;;;;;;;2.70;1.43;;;;;;;23.36;48.89;98670.50;5139512;27;41034;-77
2023/07/31 07:14:50;;;;;;;1.83;1.30;;;;;;;23.56;48.23;98664.44;5157124;27;43148;-77
2023/07/31 07:17:18;;;;;;;4.27;1.70;;;;;;;23.51;48.18;98614.63;5139998;27;41725;-77
2023/07/31 07:19:46;;;;;;;3.83;1.40;;;;;;;23.76;47.97;98651.22;5139968;27;41285;-76
2023/07/31 07:24:57;;;;;;;4.70;1.53;;;;;;;23.99;47.55;98651.97;5139873;27;40721;-77
2023/07/31 07:27:25;;;;;;;2.23;1.27;;;;;;;24.13;47.31;98666.53;5175630;27;42754;-76
2023/07/31 07:29:53;;;;;;;3.00;1.20;;;;;;;24.28;47.42;98661.16;5156772;27;42577;-77
2023/07/31 07:32:21;;;;;;;3.23;1.43;;;;;;;24.33;46.75;98661.44;5139477;27;41295;-77
2023/07/31 07:34:50;;;;;;;4.10;1.57;;;;;;;24.27;46.67;98662.19;5156509;27;41110;-77
2023/07/31 07:37:18;;;;;;;4.40;1.20;;;;;;;24.25;47.05;98648.00;5139535;27;43563;-77
2023/07/31 07:39:46;;;;;;;2.80;1.77;;;;;;;24.25;46.44;98642.56;5139399;27;42403;-77
2023/07/31 07:42:15;;;;;;;2.97;1.33;;;;;;;24.32;46.78;98659.75;5176539;27;41914;-77
2023/07/31 07:44:42;;;;;;;3.80;1.77;;;;;;;24.33;46.68;98651.47;5140134;27;41445;-76
2023/07/31 07:47:10;;;;;;;2.03;1.40;;;;;;;24.38;46.66;98652.75;5157674;27;42498;-77
2023/07/31 07:49:38;;;;;;;2.50;1.63;;;;;;;24.64;46.27;98653.06;5157549;27;42470;-76
2023/07/31 07:52:06;;;;;;;3.77;1.60;;;;;;;24.94;45.50;98653.88;5176302;27;41127;-77
2023/07/31 07:54:34;;;;;;;2.97;1.23;;;;;;;25.23;45.74;98650.19;5139969;27;40845;-76
2023/07/31 07:57:03;;;;;;;3.33;1.13;;;;;;;25.78;44.37;98641.28;5138933;27;41860;-77
2023/07/31 07:59:32;;;;;;;2.40;1.70;;;;;;;26.01;44.04;98635.59;5174325;27;42208;-77
2023/07/31 08:02:00;;;;;;;1.10;1.00;;;;;;;26.04;43.52;98614.34;5176344;27;42188;-77
2023/07/31 08:04:27;;;;;;;1.93;1.20;;;;;;;26.30;43.60;98645.41;5140080;27;40568;-77
2023/07/31 08:06:55;;;;;;;2.03;1.83;;;;;;;26.23;43.16;98642.59;5157713;27;42708;-77
2023/07/31 08:09:23;;;;;;;2.90;1.20;;;;;;;26.13;43.11;98645.69;5156435;27;41898;-79
2023/07/31 08:11:50;;;;;;;1.30;1.13;;;;;;;26.04;43.03;98646.06;5138590;27;40308;-77
2023/07/31 08:14:18;;;;;;;3.63;1.40;;;;;;;25.88;43.62;98636.34;5138816;27;40769;-77
2023/07/31 08:16:47;;;;;;;2.30;1.30;;;;;;;25.70;43.85;98630.59;5156061;27;42795;-77
2023/07/31 08:19:15;;;;;;;2.17;1.20;;;;;;;25.67;44.29;98629.13;5138587;27;42887;-76
2023/07/31 08:21:43;;;;;;;2.57;1.30;;;;;;;25.92;44.37;98637.63;5174986;27;41204;-77
2023/07/31 08:24:11;;;;;;;1.83;1.30;;;;;;;25.99;44.16;98627.66;5138165;27;40592;-78
2023/07/31 08:26:38;;;;;;;2.73;1.43;;;;;;;26.09;43.44;98641.69;5155780;27;43132;-77
2023/07/31 08:29:09;;;;;;;2.27;1.50;;;;;;;26.21;43.01;98646.59;5155915;27;40922;-77
2023/07/31 08:31:36;;;;;;;2.00;1.30;;;;;;;26.19;43.36;98648.66;5155575;27;42279;-77
2023/07/31 08:34:05;;;;;;;2.77;1.20;;;;;;;26.16;43.30;98633.59;5155866;27;42518;-76
2023/07/31 08:36:33;;;;;;;2.63;1.17;;;;;;;26.26;43.47;98649.53;5155362;27;42776;-77
2023/07/31 08:39:01;;;;;;;3.37;1.53;;;;;;;26.58;42.88;98642.63;5155294;27;41377;-77
2023/07/31 08:41:28;;;;;;;3.43;1.50;;;;;;;27.04;42.20;98653.63;5156270;27;39856;-78
2023/07/31 08:43:58;;;;;;;2.20;1.33;;;;;;;27.70;41.78;98646.38;5156325;27;40444;-77
2023/07/31 08:50:16;;;;;;;2.40;1.50;;;;;;;27.86;39.90;98658.72;5174026;27;42714;-77
2023/07/31 08:56:08;;;;;;;3.07;1.50;;;;;;;28.51;39.19;98662.38;5128234;27;41669;-78
2023/07/31 08:59:42;;;;;;;3.07;1.80;;;;;;;28.24;39.67;98642.56;5175107;27;44434;-77
2023/07/31 09:02:11;;;;;;;2.37;1.33;;;;;;;28.39;39.94;98639.56;5174984;27;43264;-77
2023/07/31 09:04:39;;;;;;;4.40;1.37;;;;;;;29.11;38.85;98635.66;5138562;27;41339;-76
2023/07/31 09:07:10;;;;;;;1.67;1.50;;;;;;;29.52;38.03;98638.75;5174202;27;41804;-78
2023/07/31 09:09:37;;;;;;;2.27;1.60;;;;;;;29.70;37.35;98646.16;5154430;27;42524;-77
2023/07/31 09:12:08;;;;;;;2.83;1.47;;;;;;;29.75;37.56;98637.28;5137544;27;42496;-77
2023/07/31 09:14:36;;;;;;;2.83;1.80;;;;;;;30.02;36.59;98643.38;5138559;27;39950;-79
2023/07/31 09:17:04;;;;;;;2.03;1.40;;;;;;;30.52;35.80;98655.00;5155354;27;41518;-77
2023/07/31 09:19:37;;;;;;;2.13;1.30;;;;;;;30.35;36.58;98654.78;5155109;27;41968;-77
2023/07/31 09:22:06;;;;;;;2.57;1.50;;;;;;;30.05;36.77;98648.38;5138164;27;42291;-77
2023/07/31 09:24:36;;;;;;;3.93;1.63;;;;;;;29.63;36.94;98637.19;5155859;27;40676;-77
2023/07/31 09:27:04;;;;;;;2.63;1.73;;;;;;;29.52;37.59;98646.09;5154941;27;41477;-77
2023/07/31 09:29:32;;;;;;;1.93;1.43;;;;;;;29.39;37.32;98643.47;5155297;27;43183;-77
2023/07/31 09:32:00;;;;;;;1.50;1.40;;;;;;;29.39;38.01;98630.69;5135207;27;42079;-77
2023/07/31 09:34:38;;;;;;;3.17;1.63;;;;;;;29.35;37.51;98601.28;5159420;27;40940;-77
2023/07/31 09:37:06;;;;;;;2.60;1.47;;;;;;;29.55;37.74;98611.00;5154955;27;41196;-78
2023/07/31 09:39:47;;;;;;;3.80;1.50;;;;;;;30.17;36.91;98617.34;5138209;27;43451;-77
2023/07/31 09:42:15;;;;;;;2.47;1.50;;;;;;;30.90;36.55;98608.25;5173692;27;42910;-78
2023/07/31 09:44:43;;;;;;;2.17;1.20;;;;;;;31.20;35.75;98621.94;5156524;27;41117;-78
2023/07/31 09:47:24;;;;;;;1.67;1.30;;;;;;;31.02;35.45;98622.81;5156205;27;41883;-77
2023/07/31 09:49:52;;;;;;;2.73;1.40;;;;;;;30.83;35.71;98608.34;5138566;27;41925;-77
2023/07/31 09:52:19;;;;;;;4.70;1.77;;;;;;;30.64;35.48;98614.94;5172980;27;42936;-77
2023/07/31 09:54:49;;;;;;;2.90;1.40;;;;;;;30.33;36.33;98608.53;5138731;27;41329;-76
2023/07/31 09:57:19;;;;;;;2.97;1.60;;;;;;;30.02;36.21;98603.25;5155371;27;42035;-77
2023/07/31 09:59:48;;;;;;;3.43;1.43;;;;;;;29.73;36.41;98612.13;5155348;27;41983;-78
2023/07/31 10:02:22;;;;;;;1.87;1.70;;;;;;;29.48;36.85;98612.13;5155549;27;41409;-77
2023/07/31 10:04:51;;;;;;;3.57;1.60;;;;;;;28.95;37.42;98550.59;5155785;27;40077;-77
2023/07/31 10:07:21;;;;;;;2.83;1.37;;;;;;;28.97;37.55;98583.09;5155358;27;42637;-78
2023/07/31 10:09:53;;;;;;;1.77;1.40;;;;;;;28.95;37.79;98577.03;5136888;27;41397;-77
2023/07/31 10:12:27;;;;;;;2.10;1.13;;;;;;;29.17;37.73;98566.63;5154074;27;42289;-78
2023/07/31 10:14:56;;;;;;;2.33;1.57;;;;;;;30.31;36.88;98583.34;5154616;27;41259;-77
2023/07/31 10:17:24;;;;;;;2.17;1.47;;;;;;;30.45;35.61;98583.19;5154264;27;40587;-77
2023/07/31 10:19:52;;;;;;;5.17;2.03;;;;;;;30.12;35.71;98595.34;5173276;27;43700;-77
2023/07/31 10:22:21;;;;;;;2.00;1.43;;;;;;;29.67;36.21;98591.19;5137334;27;41195;-79
2023/07/31 10:24:53;;;;;;;5.53;1.73;;;;;;;29.27;36.78;98591.50;5154896;27;41590;-78
2023/07/31 10:27:21;;;;;;;3.73;1.97;;;;;;;28.89;37.41;98595.13;5136777;27;41726;-78
2023/07/31 10:29:51;;;;;;;2.90;1.83;;;;;;;28.60;37.89;98579.31;5154473;27;41871;-76
2023/07/31 10:32:21;;;;;;;5.60;1.80;;;;;;;28.51;38.35;98581.47;5136864;27;40680;-76
2023/07/31 10:34:50;;;;;;;1.53;1.20;;;;;;;28.55;38.37;98576.44;5154416;27;40036;-76
2023/07/31 10:37:22;;;;;;;1.60;1.50;;;;;;;28.60;38.60;98569.25;5119557;27;40760;-76
2023/07/31 10:40:03;;;;;;;3.07;1.50;;;;;;;28.55;39.17;98573.72;5137090;27;41695;-77
2023/07/31 10:42:34;;;;;;;3.00;1.80;;;;;;;28.38;37.99;98553.47;5137982;27;41191;-75
2023/07/31 10:45:05;;;;;;;3.63;1.63;;;;;;;28.61;38.06;98570.09;5174259;27;40355;-76
2023/07/31 10:47:38;;;;;;;1.60;1.50;;;;;;;28.63;38.89;98551.66;5154871;27;41660;-76
2023/07/31 10:50:19;;;;;;;2.30;1.33;;;;;;;28.81;38.30;98557.19;5138092;27;41836;-77
2023/07/31 10:52:49;;;;;;;3.10;1.70;;;;;;;28.90;37.58;98563.25;5173350;27;43213;-77
2023/07/31 10:55:29;;;;;;;1.70;1.30;;;;;;;29.09;37.69;98559.53;5138251;27;39786;-76
2023/07/31 10:57:59;;;;;;;3.40;2.03;;;;;;;29.20;37.66;98560.69;5150646;27;40751;-76
2023/07/31 11:00:28;;;;;;;2.80;1.50;;;;;;;29.20;37.49;98550.63;5155116;27;42158;-76
2023/07/31 11:03:00;;;;;;;3.90;1.70;;;;;;;29.17;37.28;98558.44;5154718;27;41285;-77
2023/07/31 11:05:46;;;;;;;2.00;1.40;;;;;;;29.36;36.65;98551.97;5155324;27;39780;-76
2023/07/31 11:08:16;;;;;;;3.67;1.87;;;;;;;29.78;37.28;98546.78;5151898;27;42662;-78
2023/07/31 11:10:46;;;;;;;3.20;1.90;;;;;;;30.16;35.86;98539.22;5135296;27;41632;-77
2023/07/31 11:13:14;;;;;;;2.27;1.57;;;;;;;30.12;35.58;98518.03;5153888;27;42458;-77
2023/07/31 11:15:42;;;;;;;2.63;1.67;;;;;;;30.02;36.06;98529.50;5172700;27;41513;-77
2023/07/31 11:18:11;;;;;;;3.17;1.80;;;;;;;29.70;35.31;98514.28;5153371;27;42272;-76
2023/07/31 11:20:40;;;;;;;2.63;1.97;;;;;;;29.46;36.04;98527.75;5153715;27;43192;-77
2023/07/31 11:23:14;;;;;;;2.63;1.27;;;;;;;28.79;37.05;98483.03;5168393;27;42734;-76
2023/07/31 11:28:50;;;;;;;4.43;1.63;;;;;;;28.19;37.34;98462.63;5151129;27;40624;-77
2023/07/31 11:31:18;;;;;;;2.53;1.33;;;;;;;28.49;37.81;98509.19;5170651;27;42712;-76
2023/07/31 11:33:46;;;;;;;2.37;1.40;;;;;;;28.43;37.13;98515.53;5157132;27;41776;-77
2023/07/31 11:36:19;;;;;;;2.47;1.43;;;;;;;28.43;37.17;98518.25;5140063;27;41824;-76
2023/07/31 11:38:47;;;;;;;2.70;1.70;;;;;;;28.45;37.78;98518.84;5139805;27;40708;-77
2023/07/31 11:41:16;;;;;;;1.33;1.23;;;;;;;28.48;37.88;98511.06;5140284;27;42218;-76
2023/07/31 11:43:44;;;;;;;2.57;1.67;;;;;;;28.47;37.68;98514.00;5158121;27;41148;-76
2023/07/31 11:46:14;;;;;;;3.13;1.70;;;;;;;28.33;37.12;98515.97;5176601;27;41524;-76
2023/07/31 11:48:42;;;;;;;2.60;1.70;;;;;;;28.15;37.84;98516.66;5158163;27;41645;-76
2023/07/31 11:51:12;;;;;;;3.03;1.80;;;;;;;28.12;38.18;98506.19;5176609;27;42901;-77
2023/07/31 11:53:44;;;;;;;2.07;1.30;;;;;;;28.24;38.08;98509.94;5140640;27;42050;-76
2023/07/31 11:57:09;;;;;;;3.40;1.73;;;;;;;28.24;37.97;98509.94;5174513;27;40392;-77
2023/07/31 11:59:37;;;;;;;3.83;2.13;;;;;;;28.10;37.41;98516.47;5176311;27;42506;-76
2023/07/31 12:02:07;;;;;;;4.97;1.67;;;;;;;27.83;37.58;98474.91;5157866;27;43555;-76
2023/07/31 12:04:35;;;;;;;2.70;1.73;;;;;;;28.01;37.47;98492.44;5123048;27;41323;-77
2023/07/31 12:07:02;;;;;;;2.80;1.47;;;;;;;28.16;37.41;98502.00;5140651;27;39762;-76
2023/07/31 12:09:30;;;;;;;3.07;1.57;;;;;;;28.37;37.41;98513.66;5122060;27;41817;-76
2023/07/31 12:11:58;;;;;;;3.10;1.70;;;;;;;28.45;37.79;98503.31;5174670;27;42676;-77
2023/07/31 12:14:28;;;;;;;1.90;1.33;;;;;;;28.43;38.01;98493.72;5156747;27;41672;-76
2023/07/31 12:16:57;;;;;;;2.83;1.80;;;;;;;28.31;38.13;98485.41;5156233;27;40030;-76
2023/07/31 12:19:27;;;;;;;1.47;1.30;;;;;;;28.27;37.68;98497.78;5138600;27;41250;-76
2023/07/31 12:21:56;;;;;;;4.80;2.00;;;;;;;28.00;37.51;98486.16;5138993;27;42899;-77